Aviation Digital Data Service (ADDS)

Output produced by TAFs form (2308 UTC 15 July 2018)
found at http://www.aviationweather.gov/adds/tafs/
 
METAR text: RJFU 152300Z 32003KT 270V010 9999 FEW020 SCT030 BKN060 28/25 Q1013
Conditions at: RJFU (NAGASAKI(CIV/JMS, JP) observed 2300 UTC 15 July 2018
Temperature: 28.0°C (82°F)
Dewpoint: 25.0°C (77°F) [RH = 84%]
Pressure (altimeter): 29.91 inches Hg (1013.0 mb)
Winds: from the NW (320 degrees) at 3 MPH (3 knots; 1.6 m/s)
Visibility: 6 or more miles (10+ km)
Ceiling: 6000 feet AGL
Clouds: few clouds at 2000 feet AGL
scattered clouds at 3000 feet AGL
broken clouds at 6000 feet AGL
Weather: no significant weather observed at this time

Forecast for: RJFU (NAGASAKI(CIV/JMS, JP)
Text: TAF RJFU 151706Z 1518/1700 14004KT 9999 FEW030
Forecast period: 1800 to 2300 UTC 15 July 2018
Forecast type: FROM: standard forecast or significant change
Winds: from the SE (140 degrees) at 5 MPH (4 knots; 2.1 m/s)
Visibility: 6 or more miles (10+ km)
Clouds: few clouds at 3000 feet AGL
Weather: no significant weather forecast for this period
Text: BECMG 1523/1601 33005KT
Forecast period: 2300 UTC 15 July 2018 to 0000 UTC 17 July 2018
Forecast type: BECOMING: Conditions expected to become as follows by 0100 UTC 16 July 2018
Winds: from the NNW (330 degrees) at 6 MPH (5 knots; 2.6 m/s)
Visibility: 6 or more miles (10+ km)
Clouds: few clouds at 3000 feet AGL
Weather: no significant weather forecast for this period